sensor_id;sensor_type;location;lat;lon;timestamp;pressure;altitude;pressure_sealevel;temperature;humidity
66560;BME280;53413;49.878;8.142;2023-07-08T00:00:24;100013.44;;;18.69;72.88
66560;BME280;53413;49.878;8.142;2023-07-08T00:02:51;100011.66;;;18.69;71.45
66560;BME280;53413;49.878;8.142;2023-07-08T00:05:18;100009.00;;;18.69;73.40
66560;BME280;53413;49.878;8.142;2023-07-08T00:07:44;100012.59;;;18.68;71.87
66560;BME280;53413;49.878;8.142;2023-07-08T00:10:18;100008.25;;;18.67;72.83
66560;BME280;53413;49.878;8.142;2023-07-08T00:12:45;100006.78;;;18.63;75.23
66560;BME280;53413;49.878;8.142;2023-07-08T00:15:11;100014.00;;;18.61;74.06
66560;BME280;53413;49.878;8.142;2023-07-08T00:17:36;100024.72;;;18.59;76.42
66560;BME280;53413;49.878;8.142;2023-07-08T00:20:22;100037.25;;;18.57;76.17
66560;BME280;53413;49.878;8.142;2023-07-08T00:22:48;100030.38;;;18.55;75.43
66560;BME280;53413;49.878;8.142;2023-07-08T00:25:17;100038.22;;;18.56;76.18
66560;BME280;53413;49.878;8.142;2023-07-08T00:27:45;100033.75;;;18.57;74.39
66560;BME280;53413;49.878;8.142;2023-07-08T00:30:21;100033.53;;;18.60;75.97
66560;BME280;53413;49.878;8.142;2023-07-08T00:32:47;100035.00;;;18.64;75.54
66560;BME280;53413;49.878;8.142;2023-07-08T00:35:12;100033.09;;;18.66;76.86
66560;BME280;53413;49.878;8.142;2023-07-08T00:37:38;100031.19;;;18.68;77.21
66560;BME280;53413;49.878;8.142;2023-07-08T00:40:17;100036.50;;;18.68;77.41
66560;BME280;53413;49.878;8.142;2023-07-08T00:42:44;100031.19;;;18.68;77.66
66560;BME280;53413;49.878;8.142;2023-07-08T00:45:37;100039.84;;;18.70;77.64
66560;BME280;53413;49.878;8.142;2023-07-08T00:48:28;100034.47;;;18.72;77.10
66560;BME280;53413;49.878;8.142;2023-07-08T00:50:54;100032.63;;;18.72;76.74
66560;BME280;53413;49.878;8.142;2023-07-08T00:53:32;100023.72;;;18.73;77.46
66560;BME280;53413;49.878;8.142;2023-07-08T00:56:06;100032.56;;;18.74;76.46
66560;BME280;53413;49.878;8.142;2023-07-08T00:58:39;100022.75;;;18.74;78.45
66560;BME280;53413;49.878;8.142;2023-07-08T01:01:07;100029.03;;;18.73;77.24
66560;BME280;53413;49.878;8.142;2023-07-08T01:03:39;100026.50;;;18.72;76.67
66560;BME280;53413;49.878;8.142;2023-07-08T01:06:07;100025.00;;;18.68;76.42
66560;BME280;53413;49.878;8.142;2023-07-08T01:08:33;100021.84;;;18.63;75.95
66560;BME280;53413;49.878;8.142;2023-07-08T01:11:02;100014.31;;;18.56;77.53
66560;BME280;53413;49.878;8.142;2023-07-08T01:13:34;100018.38;;;18.49;78.16
66560;BME280;53413;49.878;8.142;2023-07-08T01:16:01;100020.41;;;18.45;80.17
66560;BME280;53413;49.878;8.142;2023-07-08T01:18:26;100010.75;;;18.44;78.71
66560;BME280;53413;49.878;8.142;2023-07-08T01:20:52;100006.16;;;18.46;77.46
66560;BME280;53413;49.878;8.142;2023-07-08T01:23:20;99991.94;;;18.48;76.03
66560;BME280;53413;49.878;8.142;2023-07-08T01:25:46;99986.53;;;18.49;76.34
66560;BME280;53413;49.878;8.142;2023-07-08T01:28:13;99991.94;;;18.48;76.96
66560;BME280;53413;49.878;8.142;2023-07-08T01:30:41;99982.88;;;18.39;77.33
66560;BME280;53413;49.878;8.142;2023-07-08T01:33:17;100001.97;;;18.31;78.05
66560;BME280;53413;49.878;8.142;2023-07-08T01:35:45;100003.59;;;18.21;78.27
66560;BME280;53413;49.878;8.142;2023-07-08T01:38:12;99992.97;;;18.08;79.99
66560;BME280;53413;49.878;8.142;2023-07-08T01:40:52;99983.13;;;17.97;79.49
66560;BME280;53413;49.878;8.142;2023-07-08T01:43:18;99989.97;;;17.87;78.78
66560;BME280;53413;49.878;8.142;2023-07-08T01:45:43;99996.66;;;17.79;80.67
66560;BME280;53413;49.878;8.142;2023-07-08T01:48:14;100000.47;;;17.75;81.00
66560;BME280;53413;49.878;8.142;2023-07-08T01:51:03;100006.72;;;17.74;81.68
66560;BME280;53413;49.878;8.142;2023-07-08T01:53:32;100006.00;;;17.72;81.25
66560;BME280;53413;49.878;8.142;2023-07-08T01:55:58;100005.13;;;17.72;82.80
66560;BME280;53413;49.878;8.142;2023-07-08T01:58:24;100004.81;;;17.63;82.84
66560;BME280;53413;49.878;8.142;2023-07-08T02:00:50;100006.28;;;17.54;83.59
66560;BME280;53413;49.878;8.142;2023-07-08T02:03:16;100004.25;;;17.45;84.34
66560;BME280;53413;49.878;8.142;2023-07-08T02:05:41;100008.47;;;17.35;85.29
66560;BME280;53413;49.878;8.142;2023-07-08T02:08:06;100008.78;;;17.30;84.88
66560;BME280;53413;49.878;8.142;2023-07-08T02:10:32;100002.09;;;17.25;83.57
66560;BME280;53413;49.878;8.142;2023-07-08T02:12:57;99999.84;;;17.18;84.11
66560;BME280;53413;49.878;8.142;2023-07-08T02:15:22;100009.16;;;17.11;86.44
66560;BME280;53413;49.878;8.142;2023-07-08T02:17:48;100002.66;;;17.02;86.64
66560;BME280;53413;49.878;8.142;2023-07-08T02:20:15;100000.50;;;16.95;86.52
66560;BME280;53413;49.878;8.142;2023-07-08T02:22:41;100004.50;;;16.87;88.78
66560;BME280;53413;49.878;8.142;2023-07-08T02:25:06;99999.56;;;16.81;89.87
66560;BME280;53413;49.878;8.142;2023-07-08T02:27:34;99992.81;;;16.77;89.38
66560;BME280;53413;49.878;8.142;2023-07-08T02:29:59;99992.81;;;16.77;85.10
66560;BME280;53413;49.878;8.142;2023-07-08T02:32:25;99993.63;;;16.77;84.51
66560;BME280;53413;49.878;8.142;2023-07-08T02:34:50;99994.09;;;16.84;82.78
66560;BME280;53413;49.878;8.142;2023-07-08T02:37:17;99990.50;;;16.85;78.75
66560;BME280;53413;49.878;8.142;2023-07-08T02:39:42;99999.94;;;16.89;79.23
66560;BME280;53413;49.878;8.142;2023-07-08T02:42:08;99993.69;;;16.90;82.85
66560;BME280;53413;49.878;8.142;2023-07-08T02:44:34;99995.69;;;16.87;81.73
66560;BME280;53413;49.878;8.142;2023-07-08T02:47:00;100010.09;;;16.83;81.67
66560;BME280;53413;49.878;8.142;2023-07-08T02:49:26;100001.69;;;16.76;83.59
66560;BME280;53413;49.878;8.142;2023-07-08T02:51:51;99994.44;;;16.65;84.66
66560;BME280;53413;49.878;8.142;2023-07-08T02:54:17;100005.59;;;16.56;86.08
66560;BME280;53413;49.878;8.142;2023-07-08T02:56:43;99999.09;;;16.47;85.74
66560;BME280;53413;49.878;8.142;2023-07-08T02:59:08;100007.59;;;16.38;87.21
66560;BME280;53413;49.878;8.142;2023-07-08T03:01:33;100007.91;;;16.33;87.22
66560;BME280;53413;49.878;8.142;2023-07-08T03:04:06;100009.22;;;16.26;88.86
66560;BME280;53413;49.878;8.142;2023-07-08T03:06:31;100011.31;;;16.21;88.50
66560;BME280;53413;49.878;8.142;2023-07-08T03:08:58;100010.53;;;16.19;88.47
66560;BME280;53413;49.878;8.142;2023-07-08T03:11:23;100011.50;;;16.18;90.58
66560;BME280;53413;49.878;8.142;2023-07-08T03:13:48;100011.50;;;16.18;90.94
66560;BME280;53413;49.878;8.142;2023-07-08T03:16:14;100014.03;;;16.19;92.73
66560;BME280;53413;49.878;8.142;2023-07-08T03:18:40;100017.53;;;16.20;93.99
66560;BME280;53413;49.878;8.142;2023-07-08T03:21:12;100013.19;;;16.19;93.78
66560;BME280;53413;49.878;8.142;2023-07-08T03:23:38;100004.31;;;16.20;95.03
66560;BME280;53413;49.878;8.142;2023-07-08T03:26:03;100011.38;;;16.19;94.83
66560;BME280;53413;49.878;8.142;2023-07-08T03:28:28;100011.50;;;16.18;96.51
66560;BME280;53413;49.878;8.142;2023-07-08T03:30:54;100009.91;;;16.15;96.84
66560;BME280;53413;49.878;8.142;2023-07-08T03:33:20;100007.44;;;16.12;97.16
66560;BME280;53413;49.878;8.142;2023-07-08T03:35:45;100014.59;;;16.10;96.37
66560;BME280;53413;49.878;8.142;2023-07-08T03:38:11;100012.72;;;16.12;94.57
66560;BME280;53413;49.878;8.142;2023-07-08T03:40:36;100005.44;;;16.15;94.93
66560;BME280;53413;49.878;8.142;2023-07-08T03:43:01;100007.44;;;16.26;90.62
66560;BME280;53413;49.878;8.142;2023-07-08T03:45:27;100009.19;;;16.40;91.13
66560;BME280;53413;49.878;8.142;2023-07-08T03:47:53;100011.66;;;16.58;93.38
66560;BME280;53413;49.878;8.142;2023-07-08T03:50:24;100004.53;;;16.73;92.21
66560;BME280;53413;49.878;8.142;2023-07-08T03:52:51;100009.78;;;16.87;91.15
66560;BME280;53413;49.878;8.142;2023-07-08T03:55:17;100007.19;;;17.00;89.90
66560;BME280;53413;49.878;8.142;2023-07-08T03:57:43;100001.00;;;17.14;89.50
66560;BME280;53413;49.878;8.142;2023-07-08T04:00:09;100001.88;;;17.28;90.50
66560;BME280;53413;49.878;8.142;2023-07-08T04:02:35;100009.97;;;17.39;92.46
66560;BME280;53413;49.878;8.142;2023-07-08T04:05:01;100012.00;;;17.48;95.40
66560;BME280;53413;49.878;8.142;2023-07-08T04:07:26;100010.84;;;17.52;96.81
66560;BME280;53413;49.878;8.142;2023-07-08T04:09:52;100021.44;;;17.52;95.85
66560;BME280;53413;49.878;8.142;2023-07-08T04:12:17;100016.38;;;17.49;97.07
66560;BME280;53413;49.878;8.142;2023-07-08T04:14:43;100019.97;;;17.48;98.45
66560;BME280;53413;49.878;8.142;2023-07-08T04:17:09;100025.25;;;17.48;97.16
66560;BME280;53413;49.878;8.142;2023-07-08T04:19:34;100020.47;;;17.53;94.93
66560;BME280;53413;49.878;8.142;2023-07-08T04:22:01;100026.84;;;17.64;97.66
66560;BME280;53413;49.878;8.142;2023-07-08T04:24:27;100019.78;;;17.77;94.66
66560;BME280;53413;49.878;8.142;2023-07-08T04:26:53;100015.31;;;17.91;97.21
66560;BME280;53413;49.878;8.142;2023-07-08T04:29:20;100015.47;;;18.02;96.33
66560;BME280;53413;49.878;8.142;2023-07-08T04:31:46;100020.88;;;18.13;96.56
66560;BME280;53413;49.878;8.142;2023-07-08T04:34:12;100029.88;;;18.24;96.64
66560;BME280;53413;49.878;8.142;2023-07-08T04:36:38;100029.88;;;18.37;95.70
66560;BME280;53413;49.878;8.142;2023-07-08T04:39:05;100033.34;;;18.50;92.77
66560;BME280;53413;49.878;8.142;2023-07-08T04:41:30;100031.41;;;18.65;90.57
66560;BME280;53413;49.878;8.142;2023-07-08T04:43:56;100035.59;;;18.81;90.92
66560;BME280;53413;49.878;8.142;2023-07-08T04:46:32;100032.16;;;18.91;88.37
66560;BME280;53413;49.878;8.142;2023-07-08T04:49:01;100041.16;;;19.02;87.77
66560;BME280;53413;49.878;8.142;2023-07-08T04:51:26;100042.22;;;19.12;81.81
66560;BME280;53413;49.878;8.142;2023-07-08T04:53:51;100032.47;;;19.24;80.10
66560;BME280;53413;49.878;8.142;2023-07-08T04:56:17;100029.50;;;19.40;77.08
66560;BME280;53413;49.878;8.142;2023-07-08T04:58:42;100035.03;;;19.61;78.60
66560;BME280;53413;49.878;8.142;2023-07-08T05:01:08;100036.56;;;19.88;74.69
66560;BME280;53413;49.878;8.142;2023-07-08T05:03:33;100044.00;;;20.19;73.99
66560;BME280;53413;49.878;8.142;2023-07-08T05:05:58;100052.06;;;20.40;76.80
66560;BME280;53413;49.878;8.142;2023-07-08T05:08:24;100054.38;;;20.56;78.22
66560;BME280;53413;49.878;8.142;2023-07-08T05:10:49;100068.06;;;20.63;68.06
66560;BME280;53413;49.878;8.142;2023-07-08T05:13:14;100063.06;;;20.69;66.04
66560;BME280;53413;49.878;8.142;2023-07-08T05:15:40;100063.59;;;20.74;65.59
66560;BME280;53413;49.878;8.142;2023-07-08T05:18:05;100061.84;;;20.73;65.23
66560;BME280;53413;49.878;8.142;2023-07-08T05:20:31;100049.66;;;20.71;66.20
66560;BME280;53413;49.878;8.142;2023-07-08T05:22:58;100051.22;;;20.62;66.05
66560;BME280;53413;49.878;8.142;2023-07-08T05:25:23;100047.22;;;20.56;66.81
66560;BME280;53413;49.878;8.142;2023-07-08T05:27:48;100049.19;;;20.43;67.50
66560;BME280;53413;49.878;8.142;2023-07-08T05:30:17;100040.97;;;20.35;68.23
66560;BME280;53413;49.878;8.142;2023-07-08T05:32:44;100035.41;;;20.26;68.47
66560;BME280;53413;49.878;8.142;2023-07-08T05:35:09;100034.19;;;20.19;68.78
66560;BME280;53413;49.878;8.142;2023-07-08T05:37:35;100055.47;;;20.19;68.83
66560;BME280;53413;49.878;8.142;2023-07-08T05:40:00;100053.75;;;20.18;70.60
66560;BME280;53413;49.878;8.142;2023-07-08T05:42:29;100051.97;;;20.19;68.70
66560;BME280;53413;49.878;8.142;2023-07-08T05:44:55;100051.84;;;20.20;69.62
66560;BME280;53413;49.878;8.142;2023-07-08T05:47:21;100051.84;;;20.20;77.77
66560;BME280;53413;49.878;8.142;2023-07-08T05:49:47;100044.09;;;20.17;74.54
66560;BME280;53413;49.878;8.142;2023-07-08T05:52:12;100036.38;;;20.14;70.22
66560;BME280;53413;49.878;8.142;2023-07-08T05:54:38;100045.91;;;20.17;67.08
66560;BME280;53413;49.878;8.142;2023-07-08T05:57:05;100046.06;;;20.26;69.81
66560;BME280;53413;49.878;8.142;2023-07-08T05:59:31;100045.66;;;20.54;69.47
66560;BME280;53413;49.878;8.142;2023-07-08T06:01:57;100054.78;;;21.06;66.62
66560;BME280;53413;49.878;8.142;2023-07-08T06:04:22;100055.13;;;21.78;65.55
66560;BME280;53413;49.878;8.142;2023-07-08T06:06:48;100043.22;;;22.35;61.50
66560;BME280;53413;49.878;8.142;2023-07-08T06:09:13;100044.59;;;22.60;59.64
66560;BME280;53413;49.878;8.142;2023-07-08T06:11:38;100052.91;;;22.67;57.89
66560;BME280;53413;49.878;8.142;2023-07-08T06:14:05;100065.16;;;22.79;57.13
66560;BME280;53413;49.878;8.142;2023-07-08T06:16:31;100065.19;;;22.89;56.52
66560;BME280;53413;49.878;8.142;2023-07-08T06:18:57;100075.31;;;22.95;55.48
66560;BME280;53413;49.878;8.142;2023-07-08T06:21:23;100085.03;;;22.96;56.11
66560;BME280;53413;49.878;8.142;2023-07-08T06:23:48;100087.97;;;22.93;54.55
66560;BME280;53413;49.878;8.142;2023-07-08T06:26:14;100103.44;;;22.89;54.25
66560;BME280;53413;49.878;8.142;2023-07-08T06:28:39;100102.59;;;22.89;54.42
66560;BME280;53413;49.878;8.142;2023-07-08T06:31:04;100105.13;;;22.90;56.26
66560;BME280;53413;49.878;8.142;2023-07-08T06:33:29;100109.94;;;22.97;55.50
66560;BME280;53413;49.878;8.142;2023-07-08T06:35:55;100118.94;;;23.05;56.17
66560;BME280;53413;49.878;8.142;2023-07-08T06:38:20;100116.44;;;23.14;55.84
66560;BME280;53413;49.878;8.142;2023-07-08T06:40:45;100124.50;;;23.24;54.85
66560;BME280;53413;49.878;8.142;2023-07-08T06:43:11;100133.09;;;23.37;53.22
66560;BME280;53413;49.878;8.142;2023-07-08T06:45:36;100126.22;;;23.54;52.80
66560;BME280;53413;49.878;8.142;2023-07-08T06:48:01;100145.22;;;23.90;52.73
66560;BME280;53413;49.878;8.142;2023-07-08T06:50:27;100149.72;;;24.29;51.12
66560;BME280;53413;49.878;8.142;2023-07-08T06:52:52;100160.84;;;24.82;51.73
66560;BME280;53413;49.878;8.142;2023-07-08T06:55:18;100150.81;;;25.76;48.79
66560;BME280;53413;49.878;8.142;2023-07-08T06:57:43;100145.06;;;26.33;46.66
66560;BME280;53413;49.878;8.142;2023-07-08T07:00:10;100129.03;;;26.50;46.45
66560;BME280;53413;49.878;8.142;2023-07-08T07:02:36;100133.78;;;26.64;45.61
66560;BME280;53413;49.878;8.142;2023-07-08T07:05:02;100115.09;;;28.87;42.18
66560;BME280;53413;49.878;8.142;2023-07-08T07:07:30;100100.69;;;34.68;34.26
66560;BME280;53413;49.878;8.142;2023-07-08T07:09:56;100124.94;;;39.36;27.93
66560;BME280;53413;49.878;8.142;2023-07-08T07:12:24;100136.78;;;42.77;24.00
66560;BME280;53413;49.878;8.142;2023-07-08T07:14:49;100122.94;;;45.43;21.43
66560;BME280;53413;49.878;8.142;2023-07-08T07:17:19;100129.09;;;47.43;18.65
66560;BME280;53413;49.878;8.142;2023-07-08T07:19:44;100134.81;;;44.53;20.01
66560;BME280;53413;49.878;8.142;2023-07-08T07:22:10;100142.66;;;44.20;19.77
66560;BME280;53413;49.878;8.142;2023-07-08T07:24:35;100138.00;;;41.58;22.23
66560;BME280;53413;49.878;8.142;2023-07-08T07:27:00;100144.09;;;38.78;23.93
66560;BME280;53413;49.878;8.142;2023-07-08T07:29:26;100139.41;;;36.68;25.77
66560;BME280;53413;49.878;8.142;2023-07-08T07:31:51;100130.50;;;34.89;27.96
66560;BME280;53413;49.878;8.142;2023-07-08T07:34:17;100141.13;;;33.51;28.82
66560;BME280;53413;49.878;8.142;2023-07-08T07:36:42;100138.50;;;33.02;30.07
66560;BME280;53413;49.878;8.142;2023-07-08T07:39:08;100126.50;;;32.76;29.76
66560;BME280;53413;49.878;8.142;2023-07-08T07:41:33;100125.72;;;32.47;30.21
66560;BME280;53413;49.878;8.142;2023-07-08T07:43:58;100117.13;;;36.53;26.24
66560;BME280;53413;49.878;8.142;2023-07-08T07:46:24;100126.28;;;41.67;22.21
66560;BME280;53413;49.878;8.142;2023-07-08T07:48:49;100138.53;;;45.68;19.31
66560;BME280;53413;49.878;8.142;2023-07-08T07:51:15;100124.91;;;48.20;17.26
66560;BME280;53413;49.878;8.142;2023-07-08T07:53:40;100124.28;;;50.19;16.23
66560;BME280;53413;49.878;8.142;2023-07-08T07:56:06;100123.78;;;51.67;14.79
66560;BME280;53413;49.878;8.142;2023-07-08T07:58:32;100120.03;;;52.61;14.48
66560;BME280;53413;49.878;8.142;2023-07-08T08:00:57;100116.19;;;54.16;13.71
66560;BME280;53413;49.878;8.142;2023-07-08T08:03:23;100113.59;;;55.34;13.23
66560;BME280;53413;49.878;8.142;2023-07-08T08:05:49;100113.34;;;53.54;13.56
66560;BME280;53413;49.878;8.142;2023-07-08T08:08:15;100100.50;;;49.19;15.67
66560;BME280;53413;49.878;8.142;2023-07-08T08:10:42;100104.09;;;46.04;17.09
66560;BME280;53413;49.878;8.142;2023-07-08T08:13:07;100098.28;;;44.01;18.79
66560;BME280;53413;49.878;8.142;2023-07-08T08:15:34;100100.84;;;42.36;19.86
66560;BME280;53413;49.878;8.142;2023-07-08T08:17:59;100111.34;;;40.54;20.35
66560;BME280;53413;49.878;8.142;2023-07-08T08:20:25;100112.72;;;39.61;21.13
66560;BME280;53413;49.878;8.142;2023-07-08T08:22:51;100123.97;;;40.32;21.26
66560;BME280;53413;49.878;8.142;2023-07-08T08:25:19;100117.81;;;42.22;19.85
66560;BME280;53413;49.878;8.142;2023-07-08T08:27:44;100116.81;;;45.51;18.12
66560;BME280;53413;49.878;8.142;2023-07-08T08:30:11;100126.53;;;47.80;16.50
66560;BME280;53413;49.878;8.142;2023-07-08T08:32:36;100128.16;;;48.64;16.10
66560;BME280;53413;49.878;8.142;2023-07-08T08:35:02;100126.84;;;51.00;14.59
66560;BME280;53413;49.878;8.142;2023-07-08T08:37:27;100123.69;;;53.29;13.23
66560;BME280;53413;49.878;8.142;2023-07-08T08:39:52;100124.69;;;54.86;12.88
66560;BME280;53413;49.878;8.142;2023-07-08T08:44:49;100124.84;;;55.82;12.75
66560;BME280;53413;49.878;8.142;2023-07-08T08:50:12;100129.50;;;53.70;13.45
66560;BME280;53413;49.878;8.142;2023-07-08T08:52:45;100127.44;;;50.35;15.03
66560;BME280;53413;49.878;8.142;2023-07-08T08:55:12;100128.59;;;48.44;16.16
66560;BME280;53413;49.878;8.142;2023-07-08T08:57:49;100126.84;;;47.45;16.50
66560;BME280;53413;49.878;8.142;2023-07-08T09:00:23;100123.34;;;45.31;18.02
66560;BME280;53413;49.878;8.142;2023-07-08T09:03:03;100129.63;;;42.76;20.01
66560;BME280;53413;49.878;8.142;2023-07-08T09:05:32;100122.66;;;41.34;21.08
66560;BME280;53413;49.878;8.142;2023-07-08T09:08:12;100117.97;;;40.36;21.50
66560;BME280;53413;49.878;8.142;2023-07-08T09:10:47;100110.53;;;41.63;20.62
66560;BME280;53413;49.878;8.142;2023-07-08T09:13:25;100109.94;;;45.43;18.24
66560;BME280;53413;49.878;8.142;2023-07-08T09:16:01;100111.97;;;49.49;15.88
66560;BME280;53413;49.878;8.142;2023-07-08T09:18:32;100104.72;;;52.38;14.59
66560;BME280;53413;49.878;8.142;2023-07-08T09:21:05;100097.38;;;54.29;13.52
66560;BME280;53413;49.878;8.142;2023-07-08T09:23:38;100094.56;;;55.43;12.96
66560;BME280;53413;49.878;8.142;2023-07-08T09:26:08;100095.19;;;55.85;12.81
66560;BME280;53413;49.878;8.142;2023-07-08T09:28:38;100087.34;;;55.58;12.80
66560;BME280;53413;49.878;8.142;2023-07-08T09:31:06;100089.59;;;52.51;14.11
66560;BME280;53413;49.878;8.142;2023-07-08T09:33:32;100073.69;;;49.95;15.72
66560;BME280;53413;49.878;8.142;2023-07-08T09:35:57;100079.91;;;49.91;15.38
66560;BME280;53413;49.878;8.142;2023-07-08T09:38:23;100079.09;;;50.75;15.36
66560;BME280;53413;49.878;8.142;2023-07-08T09:40:50;100080.66;;;50.15;15.55
66560;BME280;53413;49.878;8.142;2023-07-08T09:43:36;100087.03;;;48.98;16.33
66560;BME280;53413;49.878;8.142;2023-07-08T09:46:02;100075.47;;;50.48;15.27
66560;BME280;53413;49.878;8.142;2023-07-08T09:48:31;100075.13;;;51.20;15.07
66560;BME280;53413;49.878;8.142;2023-07-08T09:50:59;100077.75;;;52.97;14.25
66560;BME280;53413;49.878;8.142;2023-07-08T09:53:25;100077.31;;;53.07;13.96
66560;BME280;53413;49.878;8.142;2023-07-08T09:55:52;100073.66;;;53.40;14.16
66560;BME280;53413;49.878;8.142;2023-07-08T09:58:29;100070.41;;;53.50;13.61
66560;BME280;53413;49.878;8.142;2023-07-08T10:01:05;100072.25;;;53.34;14.01
66560;BME280;53413;49.878;8.142;2023-07-08T10:03:33;100070.31;;;53.13;14.14
66560;BME280;53413;49.878;8.142;2023-07-08T10:06:03;100074.13;;;53.42;14.39
66560;BME280;53413;49.878;8.142;2023-07-08T10:08:59;100061.78;;;53.55;14.04
66560;BME280;53413;49.878;8.142;2023-07-08T10:13:54;100063.44;;;53.81;14.00
66560;BME280;53413;49.878;8.142;2023-07-08T10:18:51;100064.34;;;51.49;15.15
66560;BME280;53413;49.878;8.142;2023-07-08T10:21:51;100061.31;;;50.36;15.66
66560;BME280;53413;49.878;8.142;2023-07-08T10:38:16;100062.34;;;37.93;25.36
66560;BME280;53413;49.878;8.142;2023-07-08T10:40:57;100066.16;;;36.84;26.74
66560;BME280;53413;49.878;8.142;2023-07-08T10:51:07;100066.53;;;35.69;28.41
66560;BME280;53413;49.878;8.142;2023-07-08T10:54:11;100060.13;;;35.31;29.00
66560;BME280;53413;49.878;8.142;2023-07-08T10:57:00;100065.38;;;35.01;29.75
66560;BME280;53413;49.878;8.142;2023-07-08T10:59:41;100063.72;;;34.86;29.94
66560;BME280;53413;49.878;8.142;2023-07-08T11:07:41;100061.81;;;34.48;31.22
66560;BME280;53413;49.878;8.142;2023-07-08T11:10:19;100057.94;;;34.17;30.97
66560;BME280;53413;49.878;8.142;2023-07-08T11:12:52;100068.19;;;34.08;31.16
66560;BME280;53413;49.878;8.142;2023-07-08T11:15:25;100079.50;;;33.98;31.39
66560;BME280;53413;49.878;8.142;2023-07-08T11:18:15;100075.09;;;34.11;31.43
66560;BME280;53413;49.878;8.142;2023-07-08T11:23:29;100063.63;;;33.88;31.94
66560;BME280;53413;49.878;8.142;2023-07-08T11:26:32;100060.91;;;33.68;32.17
66560;BME280;53413;49.878;8.142;2023-07-08T11:29:00;100066.56;;;33.46;32.43
66560;BME280;53413;49.878;8.142;2023-07-08T11:31:30;100063.44;;;33.36;32.87
66560;BME280;53413;49.878;8.142;2023-07-08T11:33:57;100067.56;;;33.32;32.90
66560;BME280;53413;49.878;8.142;2023-07-08T11:36:23;100066.97;;;33.43;32.27
66560;BME280;53413;49.878;8.142;2023-07-08T11:38:53;100057.78;;;33.65;32.45
66560;BME280;53413;49.878;8.142;2023-07-08T11:41:24;100053.59;;;33.89;32.14
66560;BME280;53413;49.878;8.142;2023-07-08T11:44:03;100068.22;;;34.01;32.17
66560;BME280;53413;49.878;8.142;2023-07-08T11:46:32;100059.41;;;34.06;31.97
66560;BME280;53413;49.878;8.142;2023-07-08T11:49:12;100050.19;;;34.14;31.96
66560;BME280;53413;49.878;8.142;2023-07-08T11:51:41;100052.50;;;34.17;31.90
66560;BME280;53413;49.878;8.142;2023-07-08T11:54:47;100051.03;;;34.21;31.73
66560;BME280;53413;49.878;8.142;2023-07-08T11:57:07;100050.66;;;34.04;32.08
66560;BME280;53413;49.878;8.142;2023-07-08T11:59:38;100053.56;;;34.02;32.38
66560;BME280;53413;49.878;8.142;2023-07-08T12:07:32;100041.88;;;33.95;32.34
66560;BME280;53413;49.878;8.142;2023-07-08T12:10:02;100040.38;;;33.99;32.51
66560;BME280;53413;49.878;8.142;2023-07-08T12:12:37;100048.53;;;33.99;32.82
66560;BME280;53413;49.878;8.142;2023-07-08T12:17:43;100045.41;;;34.02;32.50
66560;BME280;53413;49.878;8.142;2023-07-08T12:20:31;100037.25;;;34.02;32.40
66560;BME280;53413;49.878;8.142;2023-07-08T12:22:57;100041.66;;;34.03;31.76
66560;BME280;53413;49.878;8.142;2023-07-08T12:25:34;100036.63;;;33.94;32.56
66560;BME280;53413;49.878;8.142;2023-07-08T12:28:01;100042.69;;;33.82;33.12
66560;BME280;53413;49.878;8.142;2023-07-08T12:30:31;100027.66;;;33.86;33.37
66560;BME280;53413;49.878;8.142;2023-07-08T12:32:59;100030.56;;;33.98;32.94
66560;BME280;53413;49.878;8.142;2023-07-08T12:35:32;100027.00;;;34.04;32.67
66560;BME280;53413;49.878;8.142;2023-07-08T12:38:09;100025.34;;;34.03;32.29
66560;BME280;53413;49.878;8.142;2023-07-08T12:40:35;100028.28;;;34.02;31.41
66560;BME280;53413;49.878;8.142;2023-07-08T12:43:00;100018.84;;;34.11;31.87
66560;BME280;53413;49.878;8.142;2023-07-08T12:45:27;100019.22;;;34.15;31.07
66560;BME280;53413;49.878;8.142;2023-07-08T12:47:54;100025.50;;;34.22;32.01
66560;BME280;53413;49.878;8.142;2023-07-08T12:50:21;100020.09;;;34.15;32.33
66560;BME280;53413;49.878;8.142;2023-07-08T12:52:47;100016.34;;;34.10;32.39
66560;BME280;53413;49.878;8.142;2023-07-08T12:55:14;100031.19;;;34.00;32.69
66560;BME280;53413;49.878;8.142;2023-07-08T12:57:42;100021.59;;;33.84;32.96
66560;BME280;53413;49.878;8.142;2023-07-08T13:00:38;100016.78;;;33.73;32.95
66560;BME280;53413;49.878;8.142;2023-07-08T13:03:16;100014.06;;;33.80;32.61
66560;BME280;53413;49.878;8.142;2023-07-08T13:05:43;100013.22;;;33.92;32.12
66560;BME280;53413;49.878;8.142;2023-07-08T13:08:13;100009.44;;;34.00;31.54
66560;BME280;53413;49.878;8.142;2023-07-08T13:10:40;100006.88;;;34.19;31.44
66560;BME280;53413;49.878;8.142;2023-07-08T13:13:08;100013.34;;;34.25;31.29
66560;BME280;53413;49.878;8.142;2023-07-08T13:15:39;100010.44;;;34.19;31.32
66560;BME280;53413;49.878;8.142;2023-07-08T13:18:13;100007.78;;;33.99;30.96
66560;BME280;53413;49.878;8.142;2023-07-08T13:20:40;100001.31;;;33.94;31.14
66560;BME280;53413;49.878;8.142;2023-07-08T13:23:08;99999.84;;;33.98;30.69
66560;BME280;53413;49.878;8.142;2023-07-08T13:25:37;100002.13;;;34.07;30.64
66560;BME280;53413;49.878;8.142;2023-07-08T13:28:16;100006.31;;;34.03;31.28
66560;BME280;53413;49.878;8.142;2023-07-08T13:30:50;100003.19;;;34.00;31.86
66560;BME280;53413;49.878;8.142;2023-07-08T13:33:18;99995.03;;;33.93;31.91
66560;BME280;53413;49.878;8.142;2023-07-08T13:35:44;99998.38;;;33.95;31.74
66560;BME280;53413;49.878;8.142;2023-07-08T13:38:19;99998.38;;;34.02;31.39
66560;BME280;53413;49.878;8.142;2023-07-08T13:40:47;99993.78;;;33.96;31.83
66560;BME280;53413;49.878;8.142;2023-07-08T13:43:13;99991.69;;;33.77;32.09
66560;BME280;53413;49.878;8.142;2023-07-08T13:45:43;100001.34;;;33.73;31.87